createdAt,value
2019-03-24T00:00:11.233Z,66.94
2019-03-24T00:02:39.449Z,67.20
2019-03-24T00:05:05.846Z,66.82
2019-03-24T00:07:32.070Z,66.98
2019-03-24T00:09:58.179Z,66.64
2019-03-24T00:12:24.285Z,66.08
2019-03-24T00:14:50.527Z,65.87
2019-03-24T00:17:16.781Z,66.42
2019-03-24T00:19:43.098Z,66.81
2019-03-24T00:22:09.193Z,66.89
2019-03-24T00:24:35.334Z,67.37
2019-03-24T00:27:01.690Z,67.39
2019-03-24T00:29:27.899Z,67.65
2019-03-24T00:31:54.225Z,67.68
2019-03-24T00:34:20.734Z,68.39
2019-03-24T00:36:48.897Z,67.93
2019-03-24T00:39:15.190Z,68.42
2019-03-24T00:41:41.298Z,67.90
2019-03-24T00:44:07.486Z,68.36
2019-03-24T00:46:34.811Z,68.93
2019-03-24T00:49:01.033Z,68.14
2019-03-24T00:51:27.262Z,68.45
2019-03-24T00:53:53.753Z,68.35
2019-03-24T00:56:19.853Z,68.31
2019-03-24T00:58:45.916Z,68.32
2019-03-24T01:01:12.040Z,68.13
2019-03-24T01:03:38.338Z,67.56
2019-03-24T01:06:04.739Z,68.81
2019-03-24T01:08:30.934Z,68.20
2019-03-24T01:10:57.033Z,68.81
2019-03-24T01:13:23.257Z,68.24
2019-03-24T01:15:49.459Z,68.90
2019-03-24T01:18:15.658Z,68.60
2019-03-24T01:20:41.989Z,68.75
2019-03-24T01:23:08.423Z,69.12
2019-03-24T01:25:34.589Z,69.21
2019-03-24T01:28:00.885Z,69.09
2019-03-24T01:30:27.198Z,69.53
2019-03-24T01:32:53.457Z,69.65
2019-03-24T01:35:19.751Z,68.78
2019-03-24T01:37:46.083Z,68.77
2019-03-24T01:40:12.364Z,69.62
2019-03-24T01:42:38.685Z,69.81
2019-03-24T01:45:08.649Z,69.72
2019-03-24T01:47:35.011Z,69.66
2019-03-24T01:50:01.534Z,70.12
2019-03-24T01:52:27.737Z,70.77
2019-03-24T01:54:55.287Z,70.68
2019-03-24T01:57:21.491Z,70.84
2019-03-24T01:59:47.628Z,70.86
2019-03-24T02:02:13.698Z,70.70
2019-03-24T02:04:39.784Z,71.16
2019-03-24T02:07:05.998Z,71.61
2019-03-24T02:09:32.151Z,71.14
2019-03-24T02:11:58.343Z,71.55
2019-03-24T02:14:24.533Z,71.64
2019-03-24T02:16:50.725Z,71.67
2019-03-24T02:19:16.793Z,71.92
2019-03-24T02:21:44.073Z,71.98
2019-03-24T02:24:10.267Z,72.20
2019-03-24T02:26:36.590Z,72.37
2019-03-24T02:29:02.893Z,72.35
2019-03-24T02:31:29.303Z,72.82
2019-03-24T02:33:55.399Z,72.76
2019-03-24T02:36:21.479Z,72.95
2019-03-24T02:38:47.571Z,73.42
2019-03-24T02:41:13.654Z,73.69
2019-03-24T02:43:39.817Z,73.94
2019-03-24T02:46:05.893Z,73.88
2019-03-24T02:48:32.002Z,74.38
2019-03-24T02:50:58.090Z,74.55
2019-03-24T02:53:24.272Z,74.59
2019-03-24T02:55:50.451Z,75.00
2019-03-24T02:58:16.626Z,74.25
2019-03-24T03:00:42.808Z,74.16
2019-03-24T03:03:09.212Z,74.13
2019-03-24T03:05:35.406Z,73.86
2019-03-24T03:08:02.814Z,74.17
2019-03-24T03:10:28.904Z,74.50
2019-03-24T03:12:54.986Z,74.54
2019-03-24T03:15:21.135Z,75.06
2019-03-24T03:17:47.273Z,75.18
2019-03-24T03:20:14.250Z,75.78
2019-03-24T03:22:40.464Z,75.44
2019-03-24T03:25:07.259Z,75.31
2019-03-24T03:27:33.445Z,75.62
2019-03-24T03:29:59.567Z,75.34
2019-03-24T03:32:25.776Z,75.53
2019-03-24T03:34:51.843Z,75.46
2019-03-24T03:37:19.126Z,75.33
2019-03-24T03:39:45.300Z,75.89
2019-03-24T03:42:11.492Z,75.66
2019-03-24T03:44:37.602Z,76.02
2019-03-24T03:47:04.795Z,76.43
2019-03-24T03:49:31.995Z,76.36
2019-03-24T03:51:58.099Z,76.36
2019-03-24T03:54:24.179Z,76.63
2019-03-24T03:56:50.280Z,76.36
2019-03-24T03:59:16.466Z,76.39
2019-03-24T04:01:42.560Z,76.88
2019-03-24T04:04:08.633Z,77.12
2019-03-24T04:06:34.731Z,76.78
2019-03-24T04:09:00.869Z,77.14
2019-03-24T04:11:26.953Z,77.44
2019-03-24T04:13:53.021Z,76.83
2019-03-24T04:16:19.098Z,77.11
2019-03-24T04:18:45.172Z,77.23
2019-03-24T04:21:11.271Z,77.18
2019-03-24T04:23:37.356Z,77.29
2019-03-24T04:26:03.462Z,77.62
2019-03-24T04:28:29.667Z,77.16
2019-03-24T04:30:55.749Z,77.22
2019-03-24T04:33:21.949Z,77.31
2019-03-24T04:35:48.215Z,76.86
2019-03-24T04:38:14.306Z,76.51
2019-03-24T04:40:40.461Z,75.68
2019-03-24T04:43:06.563Z,76.03
2019-03-24T04:45:32.648Z,77.94
2019-03-24T04:47:59.045Z,78.70
2019-03-24T04:50:25.195Z,79.10
2019-03-24T04:52:51.280Z,78.11
2019-03-24T04:55:17.549Z,77.80
2019-03-24T04:57:43.644Z,78.84
2019-03-24T05:00:10.580Z,79.01
2019-03-24T05:02:36.671Z,79.07
2019-03-24T05:05:05.589Z,79.15
2019-03-24T05:07:31.762Z,79.18
2019-03-24T05:09:58.234Z,78.96
2019-03-24T05:12:24.345Z,78.60
2019-03-24T05:14:50.405Z,78.24
2019-03-24T05:17:26.487Z,78.46
2019-03-24T05:19:44.470Z,78.90
2019-03-24T05:22:10.586Z,79.00
2019-03-24T05:24:36.678Z,78.28
2019-03-24T05:27:02.871Z,78.52
2019-03-24T05:29:28.943Z,78.59
2019-03-24T05:31:55.025Z,77.89
2019-03-24T05:34:21.222Z,78.23
2019-03-24T05:36:47.315Z,78.17
2019-03-24T05:39:13.414Z,78.02
2019-03-24T05:41:39.524Z,77.96
2019-03-24T05:44:05.810Z,78.13
2019-03-24T05:46:31.907Z,78.17
2019-03-24T05:48:58.309Z,77.48
2019-03-24T05:51:24.427Z,77.22
2019-03-24T05:53:50.548Z,77.20
2019-03-24T05:56:16.728Z,77.49
2019-03-24T05:58:42.964Z,77.48
2019-03-24T06:01:09.065Z,77.62
2019-03-24T06:03:35.267Z,77.38
2019-03-24T06:06:01.366Z,77.41
2019-03-24T06:08:27.459Z,77.58
2019-03-24T06:10:53.655Z,77.76
2019-03-24T06:13:19.776Z,77.42
2019-03-24T06:15:45.981Z,76.96
2019-03-24T06:18:12.089Z,76.62
2019-03-24T06:20:38.179Z,76.13
2019-03-24T06:23:04.363Z,76.57
2019-03-24T06:25:30.463Z,76.33
2019-03-24T06:27:56.651Z,75.79
2019-03-24T06:30:22.747Z,75.61
2019-03-24T06:32:48.838Z,76.66
2019-03-24T06:35:15.021Z,76.51
2019-03-24T06:37:41.114Z,76.64
2019-03-24T06:40:07.496Z,76.16
2019-03-24T06:42:33.675Z,75.87
2019-03-24T06:44:59.836Z,74.64
2019-03-24T06:47:25.941Z,74.78
2019-03-24T06:49:52.052Z,73.80
2019-03-24T06:52:18.293Z,74.48
2019-03-24T06:54:44.411Z,74.68
2019-03-24T06:57:10.598Z,74.52
2019-03-24T06:59:36.710Z,74.01
2019-03-24T07:02:02.887Z,73.88
2019-03-24T07:04:28.979Z,73.09
2019-03-24T07:06:55.152Z,72.97
2019-03-24T07:09:21.450Z,73.18
2019-03-24T07:11:47.547Z,71.84
2019-03-24T07:14:14.637Z,71.76
2019-03-24T07:16:40.952Z,72.56
2019-03-24T07:19:07.187Z,72.25
2019-03-24T07:21:33.291Z,70.46
2019-03-24T07:24:00.573Z,70.40
2019-03-24T07:26:26.959Z,69.25
2019-03-24T07:28:53.065Z,67.82
2019-03-24T07:31:19.286Z,67.63
2019-03-24T07:33:45.572Z,66.95
2019-03-24T07:36:11.665Z,66.15
2019-03-24T07:38:37.757Z,65.87
2019-03-24T07:41:04.084Z,66.19
2019-03-24T07:43:30.175Z,65.34
2019-03-24T07:45:56.279Z,65.21
2019-03-24T07:48:29.314Z,63.85
2019-03-24T07:50:55.531Z,65.33
2019-03-24T07:53:21.737Z,65.35
2019-03-24T07:55:47.948Z,63.29
2019-03-24T07:58:14.013Z,64.32
2019-03-24T08:00:40.221Z,63.60
2019-03-24T08:03:06.403Z,62.71
2019-03-24T08:05:32.606Z,63.42
2019-03-24T08:07:58.703Z,61.75
2019-03-24T08:10:25.982Z,61.96
2019-03-24T08:12:53.371Z,62.09
2019-03-24T08:15:19.584Z,62.39
2019-03-24T08:17:46.134Z,61.53
2019-03-24T08:20:12.485Z,60.93
2019-03-24T08:22:38.646Z,62.56
2019-03-24T08:25:05.277Z,61.59
2019-03-24T08:27:31.327Z,60.52
2019-03-24T08:29:57.440Z,59.80
2019-03-24T08:32:23.535Z,61.42
2019-03-24T08:34:50.876Z,60.18
2019-03-24T08:37:17.156Z,60.39
2019-03-24T08:39:43.380Z,60.06
2019-03-24T08:42:09.505Z,61.41
2019-03-24T08:44:35.604Z,59.37
2019-03-24T08:47:01.798Z,60.21
2019-03-24T08:49:27.888Z,59.42
2019-03-24T08:51:54.150Z,59.06
2019-03-24T08:54:20.358Z,58.18
2019-03-24T08:56:46.456Z,58.32
2019-03-24T08:59:12.540Z,58.18
2019-03-24T09:01:38.625Z,56.51
2019-03-24T09:04:04.733Z,56.03
2019-03-24T09:06:30.830Z,55.51
2019-03-24T09:08:58.271Z,56.22
2019-03-24T09:11:31.136Z,57.23
2019-03-24T09:13:52.495Z,56.91
2019-03-24T09:16:18.630Z,56.17
2019-03-24T09:18:52.551Z,55.96
2019-03-24T09:21:12.914Z,55.53
2019-03-24T09:23:39.135Z,53.67
2019-03-24T09:26:05.323Z,53.76
2019-03-24T09:28:31.432Z,54.39
2019-03-24T09:30:57.526Z,53.87
2019-03-24T09:33:23.751Z,52.89
2019-03-24T09:35:49.956Z,54.51
2019-03-24T09:38:16.036Z,55.15
2019-03-24T09:40:42.230Z,54.52
2019-03-24T09:43:08.403Z,54.05
2019-03-24T09:45:34.706Z,50.77
2019-03-24T09:48:01.102Z,50.18
2019-03-24T09:50:27.434Z,49.98
2019-03-24T09:52:53.576Z,50.67
2019-03-24T09:55:19.697Z,50.39
2019-03-24T09:57:45.931Z,50.59
2019-03-24T10:00:12.145Z,50.59
2019-03-24T10:02:38.369Z,50.52
2019-03-24T10:05:04.975Z,47.97
2019-03-24T10:07:31.107Z,51.06
2019-03-24T10:09:57.261Z,48.41
2019-03-24T10:12:23.382Z,48.41
2019-03-24T10:14:49.568Z,48.85
2019-03-24T10:17:15.888Z,48.34
2019-03-24T10:19:42.011Z,47.22
2019-03-24T10:22:09.325Z,47.22
2019-03-24T10:24:35.451Z,46.51
2019-03-24T10:27:01.719Z,47.83
2019-03-24T10:29:27.883Z,46.42
2019-03-24T10:31:53.984Z,46.42
2019-03-24T10:34:20.140Z,46.20
2019-03-24T10:36:46.283Z,49.68
2019-03-24T10:39:12.516Z,50.19
2019-03-24T10:41:38.657Z,49.42
2019-03-24T10:44:04.896Z,46.12
2019-03-24T10:46:31.107Z,43.67
2019-03-24T10:48:57.302Z,45.22
2019-03-24T10:51:23.592Z,44.46
2019-03-24T10:53:49.944Z,44.40
2019-03-24T10:56:16.087Z,45.31
2019-03-24T10:58:42.413Z,44.47
2019-03-24T11:01:08.623Z,44.11
2019-03-24T11:03:34.723Z,44.41
2019-03-24T11:06:00.904Z,44.56
2019-03-24T11:08:27.069Z,45.36
2019-03-24T11:10:53.300Z,46.00
2019-03-24T11:13:19.451Z,46.00
2019-03-24T11:15:45.684Z,41.38
2019-03-24T11:18:11.893Z,42.58
2019-03-24T11:20:38.106Z,40.41
2019-03-24T11:23:05.459Z,42.22
2019-03-24T11:25:31.788Z,41.26
2019-03-24T11:27:58.141Z,41.29
2019-03-24T11:30:24.497Z,41.31
2019-03-24T11:32:50.684Z,41.87
2019-03-24T11:35:16.814Z,41.40
2019-03-24T11:37:43.130Z,42.62
2019-03-24T11:40:09.816Z,40.12
2019-03-24T11:42:36.105Z,40.73
2019-03-24T11:45:04.592Z,41.32
2019-03-24T11:47:30.925Z,42.71
2019-03-24T11:49:57.066Z,42.83
2019-03-24T11:52:23.275Z,42.83
2019-03-24T11:54:49.526Z,40.80
2019-03-24T11:57:15.751Z,41.11
2019-03-24T11:59:43.029Z,40.18
2019-03-24T12:02:09.439Z,42.68
2019-03-24T12:04:35.678Z,39.92
2019-03-24T12:07:01.935Z,41.35
2019-03-24T12:09:29.255Z,38.05
2019-03-24T12:11:55.594Z,38.44
2019-03-24T12:14:21.805Z,38.71
2019-03-24T12:16:48.129Z,38.25
2019-03-24T12:19:14.471Z,38.13
2019-03-24T12:21:40.749Z,39.69
2019-03-24T12:24:06.883Z,38.78
2019-03-24T12:26:33.323Z,40.11
2019-03-24T12:28:59.493Z,40.78
2019-03-24T12:31:25.761Z,40.02
2019-03-24T12:33:51.893Z,41.59
2019-03-24T12:36:18.040Z,36.76
2019-03-24T12:38:44.170Z,37.98
2019-03-24T12:41:10.509Z,36.70
2019-03-24T12:43:36.792Z,35.96
2019-03-24T12:46:03.116Z,36.09
2019-03-24T12:48:29.377Z,37.32
2019-03-24T12:50:55.694Z,34.82
2019-03-24T12:53:22.034Z,34.11
2019-03-24T12:55:48.171Z,36.22
2019-03-24T12:58:14.514Z,39.63
2019-03-24T13:00:40.958Z,36.95
2019-03-24T13:03:07.649Z,40.61
2019-03-24T13:05:34.053Z,37.34
2019-03-24T13:08:10.223Z,39.02
2019-03-24T13:10:36.351Z,38.24
2019-03-24T13:13:02.752Z,38.80
2019-03-24T13:15:30.093Z,39.80
2019-03-24T13:17:56.370Z,38.40
2019-03-24T13:20:36.611Z,38.15
2019-03-24T13:22:50.596Z,37.46
2019-03-24T13:25:16.813Z,39.52
2019-03-24T13:27:43.029Z,38.03
2019-03-24T13:30:09.807Z,39.50
2019-03-24T13:32:36.173Z,38.94
2019-03-24T13:35:03.230Z,38.14
2019-03-24T13:37:29.570Z,37.09
2019-03-24T13:39:55.684Z,38.30
2019-03-24T13:42:21.946Z,38.57
2019-03-24T13:44:48.195Z,38.86
2019-03-24T13:47:14.395Z,38.88
2019-03-24T13:49:40.673Z,39.51
2019-03-24T13:52:07.333Z,38.74
2019-03-24T13:54:33.767Z,37.08
2019-03-24T13:56:59.998Z,37.74
2019-03-24T13:59:26.121Z,35.92
2019-03-24T14:01:52.229Z,38.09
2019-03-24T14:04:18.337Z,36.33
2019-03-24T14:06:44.597Z,36.64
2019-03-24T14:09:11.290Z,34.46
2019-03-24T14:11:37.616Z,36.07
2019-03-24T14:14:03.895Z,34.39
2019-03-24T14:16:30.048Z,35.04
2019-03-24T14:18:56.407Z,35.04
2019-03-24T14:21:22.628Z,33.36
2019-03-24T14:23:48.770Z,32.62
2019-03-24T14:26:15.113Z,32.22
2019-03-24T14:28:41.223Z,33.23
2019-03-24T14:31:07.335Z,34.61
2019-03-24T14:33:34.050Z,33.47
2019-03-24T14:36:00.261Z,33.92
2019-03-24T14:38:27.574Z,32.45
2019-03-24T14:40:53.897Z,32.59
2019-03-24T14:43:20.190Z,33.18
2019-03-24T14:45:46.543Z,33.60
2019-03-24T14:48:12.666Z,34.02
2019-03-24T14:50:38.908Z,35.71
2019-03-24T14:53:05.303Z,35.13
2019-03-24T14:55:31.535Z,34.50
2019-03-24T14:57:57.887Z,34.98
2019-03-24T15:00:27.829Z,35.25
2019-03-24T15:02:53.929Z,35.27
2019-03-24T15:05:20.165Z,34.75
2019-03-24T15:07:46.502Z,34.98
2019-03-24T15:10:12.772Z,34.43
2019-03-24T15:12:38.938Z,33.26
2019-03-24T15:15:07.358Z,34.71
2019-03-24T15:17:33.808Z,36.28
2019-03-24T15:19:59.933Z,35.87
2019-03-24T15:22:26.136Z,35.90
2019-03-24T15:24:52.340Z,36.80
2019-03-24T15:27:18.575Z,37.63
2019-03-24T15:29:44.827Z,37.66
2019-03-24T15:32:10.970Z,35.63
2019-03-24T15:34:37.187Z,35.97
2019-03-24T15:37:03.308Z,36.16
2019-03-24T15:39:29.548Z,37.15
2019-03-24T15:41:57.644Z,36.79
2019-03-24T15:44:23.858Z,36.02
2019-03-24T15:46:50.096Z,37.39
2019-03-24T15:49:16.408Z,38.12
2019-03-24T15:51:42.751Z,36.47
2019-03-24T15:54:09.003Z,36.68
2019-03-24T15:56:35.210Z,37.02
2019-03-24T15:59:01.323Z,36.75
2019-03-24T16:01:27.472Z,37.54
2019-03-24T16:03:53.547Z,38.10
2019-03-24T16:06:19.767Z,37.55
2019-03-24T16:08:45.996Z,37.29
2019-03-24T16:11:12.338Z,37.15
2019-03-24T16:13:38.456Z,40.57
2019-03-24T16:16:04.826Z,38.54
2019-03-24T16:18:32.072Z,41.41
2019-03-24T16:20:58.531Z,40.14
2019-03-24T16:23:24.860Z,41.11
2019-03-24T16:25:51.210Z,40.46
2019-03-24T16:28:17.548Z,42.17
2019-03-24T16:30:43.781Z,42.17
2019-03-24T16:33:10.114Z,42.78
2019-03-24T16:35:36.451Z,42.28
2019-03-24T16:38:02.762Z,42.28
2019-03-24T16:40:29.132Z,41.84
2019-03-24T16:42:55.362Z,41.84
2019-03-24T16:45:21.758Z,41.67
2019-03-24T16:47:48.074Z,41.40
2019-03-24T16:50:15.386Z,41.49
2019-03-24T16:52:41.597Z,42.00
2019-03-24T16:55:08.259Z,42.63
2019-03-24T16:57:34.558Z,41.32
2019-03-24T17:00:00.782Z,40.49
2019-03-24T17:02:26.995Z,40.17
2019-03-24T17:04:53.233Z,40.56
2019-03-24T17:07:19.457Z,40.00
2019-03-24T17:09:45.555Z,39.90
2019-03-24T17:12:11.741Z,40.69
2019-03-24T17:14:37.970Z,41.50
2019-03-24T17:17:04.286Z,41.40
2019-03-24T17:19:30.382Z,42.05
2019-03-24T17:21:56.558Z,42.22
2019-03-24T17:24:22.658Z,42.40
2019-03-24T17:26:48.758Z,43.51
2019-03-24T17:29:15.062Z,44.34
2019-03-24T17:31:41.292Z,43.17
2019-03-24T17:34:07.513Z,43.08
2019-03-24T17:36:33.600Z,43.90
2019-03-24T17:38:59.820Z,44.66
2019-03-24T17:41:26.031Z,44.22
2019-03-24T17:44:02.660Z,44.77
2019-03-24T17:46:20.383Z,44.82
2019-03-24T17:48:46.468Z,46.75
2019-03-24T17:51:12.718Z,47.94
2019-03-24T17:53:38.807Z,47.08
2019-03-24T17:56:05.178Z,47.06
2019-03-24T17:58:31.422Z,46.55
2019-03-24T18:00:57.557Z,47.44
2019-03-24T18:03:23.873Z,48.09
2019-03-24T18:05:50.147Z,48.50
2019-03-24T18:08:16.356Z,47.64
2019-03-24T18:10:42.566Z,47.12
2019-03-24T18:13:08.876Z,47.97
2019-03-24T18:15:35.183Z,48.66
2019-03-24T18:18:01.496Z,48.04
2019-03-24T18:20:30.502Z,48.01
2019-03-24T18:22:57.068Z,49.15
2019-03-24T18:25:23.387Z,49.85
2019-03-24T18:27:49.634Z,50.11
2019-03-24T18:30:16.379Z,49.67
2019-03-24T18:32:42.664Z,49.14
2019-03-24T18:35:09.382Z,48.93
2019-03-24T18:37:35.784Z,50.46
2019-03-24T18:40:06.454Z,50.69
2019-03-24T18:42:32.644Z,50.06
2019-03-24T18:44:58.998Z,50.07
2019-03-24T18:47:25.251Z,51.14
2019-03-24T18:49:51.571Z,51.76
2019-03-24T18:52:22.576Z,52.78
2019-03-24T18:54:45.971Z,52.21
2019-03-24T18:57:12.110Z,51.60
2019-03-24T18:59:38.369Z,51.36
2019-03-24T19:02:04.689Z,51.48
2019-03-24T19:04:31.026Z,51.43
2019-03-24T19:06:57.370Z,51.65
2019-03-24T19:09:23.569Z,51.64
2019-03-24T19:11:51.696Z,52.12
2019-03-24T19:14:18.092Z,52.76
2019-03-24T19:16:44.288Z,53.69
2019-03-24T19:19:10.630Z,53.27
2019-03-24T19:21:37.026Z,53.10
2019-03-24T19:24:03.350Z,53.37
2019-03-24T19:26:29.555Z,53.52
2019-03-24T19:28:56.028Z,53.39
2019-03-24T19:31:23.570Z,54.06
2019-03-24T19:33:50.153Z,53.75
2019-03-24T19:36:16.238Z,53.98
2019-03-24T19:38:44.646Z,54.51
2019-03-24T19:41:11.045Z,53.76
2019-03-24T19:43:39.751Z,53.86
2019-03-24T19:46:05.373Z,54.06
2019-03-24T19:48:31.580Z,54.42
2019-03-24T19:50:57.836Z,54.36
2019-03-24T19:53:23.949Z,54.51
2019-03-24T19:55:50.262Z,54.60
2019-03-24T19:58:16.820Z,55.11
2019-03-24T20:00:42.949Z,55.80
2019-03-24T20:03:09.399Z,56.06
2019-03-24T20:05:35.549Z,56.84
2019-03-24T20:08:01.954Z,56.15
2019-03-24T20:10:29.786Z,55.46
2019-03-24T20:12:56.113Z,56.01
2019-03-24T20:15:22.227Z,55.78
2019-03-24T20:17:48.370Z,55.62
2019-03-24T20:20:14.671Z,55.77
2019-03-24T20:22:40.970Z,55.55
2019-03-24T20:25:07.545Z,55.92
2019-03-24T20:27:33.841Z,56.04
2019-03-24T20:30:00.221Z,55.31
2019-03-24T20:32:26.838Z,56.28
2019-03-24T20:34:54.156Z,55.71
2019-03-24T20:37:20.556Z,55.62
2019-03-24T20:39:46.756Z,56.24
2019-03-24T20:42:12.972Z,55.51
2019-03-24T20:44:39.054Z,55.42
2019-03-24T20:47:05.463Z,55.41
2019-03-24T20:49:31.655Z,55.66
2019-03-24T20:51:58.008Z,56.33
2019-03-24T20:54:24.134Z,56.62
2019-03-24T20:56:50.425Z,57.01
2019-03-24T20:59:17.802Z,56.82
2019-03-24T21:01:44.111Z,56.46
2019-03-24T21:04:10.452Z,57.10
2019-03-24T21:06:36.764Z,58.42
2019-03-24T21:09:05.993Z,58.66
2019-03-24T21:11:32.098Z,58.46
2019-03-24T21:13:58.381Z,58.28
2019-03-24T21:16:25.575Z,59.10
2019-03-24T21:18:51.774Z,58.91
2019-03-24T21:21:18.085Z,57.97
2019-03-24T21:23:44.659Z,59.27
2019-03-24T21:26:11.289Z,59.03
2019-03-24T21:28:37.658Z,60.52
2019-03-24T21:31:04.303Z,59.50
2019-03-24T21:33:30.627Z,60.23
2019-03-24T21:35:56.751Z,60.15
2019-03-24T21:38:22.971Z,61.08
2019-03-24T21:40:49.170Z,60.28
2019-03-24T21:43:15.256Z,59.54
2019-03-24T21:45:41.540Z,59.71
2019-03-24T21:48:07.849Z,59.33
2019-03-24T21:50:34.198Z,59.43
2019-03-24T21:53:00.511Z,59.84
2019-03-24T21:55:27.843Z,60.36
2019-03-24T21:57:57.711Z,60.28
2019-03-24T22:00:30.998Z,61.39
2019-03-24T22:02:57.116Z,62.14
2019-03-24T22:05:23.534Z,61.94
2019-03-24T22:07:49.718Z,62.01
2019-03-24T22:10:15.841Z,61.79
2019-03-24T22:12:42.032Z,62.65
2019-03-24T22:15:08.435Z,62.58
2019-03-24T22:17:34.530Z,61.91
2019-03-24T22:20:00.733Z,61.73
2019-03-24T22:22:26.987Z,61.31
2019-03-24T22:24:53.227Z,61.27
2019-03-24T22:27:19.517Z,61.82
2019-03-24T22:29:45.776Z,61.24
2019-03-24T22:32:11.973Z,61.85
2019-03-24T22:34:38.173Z,61.72
2019-03-24T22:37:15.456Z,61.70
2019-03-24T22:39:35.447Z,62.05
2019-03-24T22:42:01.583Z,61.95
2019-03-24T22:44:29.807Z,62.80
2019-03-24T22:46:55.999Z,63.81
2019-03-24T22:49:22.323Z,64.08
2019-03-24T22:51:48.419Z,63.52
2019-03-24T22:54:14.632Z,63.24
2019-03-24T22:56:40.846Z,63.02
2019-03-24T22:59:07.008Z,63.31
2019-03-24T23:01:33.650Z,63.84
2019-03-24T23:04:00.333Z,64.49
2019-03-24T23:06:26.543Z,65.44
2019-03-24T23:08:52.631Z,65.22
2019-03-24T23:11:18.798Z,65.56
2019-03-24T23:13:45.009Z,65.90
2019-03-24T23:16:11.115Z,65.70
2019-03-24T23:18:37.345Z,66.22
2019-03-24T23:21:03.656Z,66.28
2019-03-24T23:23:29.797Z,66.36
2019-03-24T23:25:56.026Z,66.61
2019-03-24T23:28:22.189Z,66.77
2019-03-24T23:30:48.387Z,66.13
2019-03-24T23:33:14.727Z,66.25
2019-03-24T23:35:41.922Z,66.13
2019-03-24T23:38:07.988Z,65.48
2019-03-24T23:40:34.313Z,65.11
2019-03-24T23:43:00.726Z,65.00
2019-03-24T23:45:26.979Z,65.31
2019-03-24T23:47:53.479Z,65.14
2019-03-24T23:50:19.635Z,65.28
2019-03-24T23:52:45.792Z,65.49
2019-03-24T23:55:12.031Z,65.47
2019-03-24T23:57:38.133Z,65.81
